This is the latest recevied weather packets stored in our database for station/object IZ3ZOD-13. If no packets are shown the sender has not sent any weather packets the latest 10 day(s).
| Time | Temp. | Humidity | Pressure | Rain* | Wind** | Luminosity | Snow |
|---|---|---|---|---|---|---|---|
| 1777564083 | 17.22° C | 33% | 1024 hPa | 0 mm | - | - | - |
| 1777562643 | 17.22° C | 33% | 1024 hPa | 0 mm | - | - | - |
| 1777559043 | 17.78° C | 35% | 1024.2 hPa | 0 mm | - | - | - |
| 1777558803 | 17.78° C | 37% | 1024.1 hPa | 0 mm | - | - | - |
| 1777558083 | 17.22° C | 34% | 1024.1 hPa | 0 mm | - | - | - |
| 1777557843 | 17.78° C | 34% | 1024.1 hPa | 0 mm | - | - | - |
| 1777555203 | 17.22° C | 35% | 1024.4 hPa | 0 mm | - | - | - |
| 1777545363 | 15° C | 45% | 1025.7 hPa | 0 mm | - | - | - |
| 1777542484 | 15.56° C | 46% | 1026 hPa | 0 mm | - | - | - |
| 1777540083 | 14.44° C | 48% | 1025.8 hPa | 0 mm | - | - | - |
| 1777537683 | 13.89° C | 51% | 1025.5 hPa | 0 mm | - | - | - |
| 1777536724 | 13.89° C | 53% | 1025.6 hPa | 0 mm | - | - | - |
| 1777533364 | 12.78° C | 55% | 1025.1 hPa | 0 mm | - | - | - |
| 1777532404 | 12.78° C | 53% | 1025.1 hPa | 0 mm | - | - | - |
| 1777529284 | 11.67° C | 55% | 1024.2 hPa | 0 mm | - | - | - |
| 1777527363 | 10.56° C | 59% | 1024.1 hPa | 0 mm | - | - | - |
| 1777525923 | 10.56° C | 61% | 1023.8 hPa | 0 mm | - | - | - |
| 1777523764 | 10° C | 66% | 1023.3 hPa | 0 mm | - | - | - |
| 1777523283 | 10° C | 67% | 1023.1 hPa | 0 mm | - | - | - |
| 1777521975 | 10° C | 69% | 1023 hPa | 0 mm | - | - | - |
| 1777519203 | 10.56° C | 67% | 1022.6 hPa | 0 mm | - | - | - |
| 1777518723 | 11.11° C | 67% | 1022.5 hPa | 0 mm | - | - | - |
| 1777518244 | 11.11° C | 66% | 1022.6 hPa | 0 mm | - | - | - |
| 1777518003 | 11.11° C | 66% | 1022.7 hPa | 0 mm | - | - | - |
| 1777516563 | 11.11° C | 67% | 1022.5 hPa | 0 mm | - | - | - |
* Rain latest hour (hover to see other rain measurements)
** Current wind speed in m/s (hover to see current wind gust speed)